createdAt,value
2018-10-21T00:00:18.856Z,4.12
2018-10-21T00:01:18.767Z,4.20
2018-10-21T00:02:18.683Z,4.18
2018-10-21T00:03:18.713Z,4.28
2018-10-21T00:04:18.519Z,4.29
2018-10-21T00:05:18.546Z,4.34
2018-10-21T00:06:18.357Z,4.44
2018-10-21T00:07:18.355Z,4.52
2018-10-21T00:08:18.210Z,4.56
2018-10-21T00:09:18.203Z,4.61
2018-10-21T00:10:18.039Z,4.56
2018-10-21T00:11:17.959Z,4.46
2018-10-21T00:12:17.863Z,4.36
2018-10-21T00:13:17.795Z,4.20
2018-10-21T00:14:17.705Z,4.26
2018-10-21T00:15:17.680Z,4.28
2018-10-21T00:16:17.552Z,4.20
2018-10-21T00:17:17.467Z,4.19
2018-10-21T00:18:17.378Z,4.23
2018-10-21T00:19:17.307Z,4.20
2018-10-21T00:20:17.215Z,4.16
2018-10-21T00:21:17.174Z,4.20
2018-10-21T00:22:17.056Z,4.08
2018-10-21T00:23:16.977Z,4.11
2018-10-21T00:24:16.887Z,4.10
2018-10-21T00:25:16.812Z,4.08
2018-10-21T00:26:16.727Z,4.16
2018-10-21T00:27:16.739Z,4.22
2018-10-21T00:28:16.564Z,4.19
2018-10-21T00:29:16.486Z,4.22
2018-10-21T00:30:16.401Z,4.29
2018-10-21T00:31:16.332Z,4.32
2018-10-21T00:32:16.236Z,4.36
2018-10-21T00:33:16.250Z,4.37
2018-10-21T00:34:16.077Z,4.38
2018-10-21T00:35:16.003Z,4.37
2018-10-21T00:36:15.912Z,4.36
2018-10-21T00:37:15.839Z,4.36
2018-10-21T00:38:15.749Z,4.38
2018-10-21T00:39:15.742Z,4.30
2018-10-21T00:40:15.584Z,4.25
2018-10-21T00:41:15.510Z,4.28
2018-10-21T00:42:15.423Z,4.23
2018-10-21T00:43:15.348Z,4.12
2018-10-21T00:44:15.258Z,4.07
2018-10-21T00:45:15.272Z,4.01
2018-10-21T00:46:15.099Z,4.07
2018-10-21T00:47:15.024Z,4.04
2018-10-21T00:48:14.936Z,4.02
2018-10-21T00:49:14.865Z,3.98
2018-10-21T00:50:14.771Z,3.94
2018-10-21T00:51:14.752Z,3.86
2018-10-21T00:52:14.605Z,3.92
2018-10-21T00:53:14.534Z,3.83
2018-10-21T00:54:14.441Z,3.84
2018-10-21T00:55:14.375Z,3.74
2018-10-21T00:56:14.281Z,3.79
2018-10-21T00:57:14.289Z,3.71
2018-10-21T00:58:14.118Z,3.74
2018-10-21T00:59:14.050Z,3.82
2018-10-21T01:00:13.960Z,3.79
2018-10-21T01:01:13.883Z,3.83
2018-10-21T01:02:13.792Z,3.90
2018-10-21T01:03:13.776Z,3.90
2018-10-21T01:04:13.682Z,3.90
2018-10-21T01:05:13.549Z,3.94
2018-10-21T01:06:13.464Z,3.97
2018-10-21T01:07:13.389Z,3.89
2018-10-21T01:08:13.300Z,3.74
2018-10-21T01:09:13.309Z,3.71
2018-10-21T01:10:13.139Z,3.77
2018-10-21T01:11:13.066Z,3.75
2018-10-21T01:12:12.976Z,3.65
2018-10-21T01:13:12.901Z,3.62
2018-10-21T01:14:12.811Z,3.66
2018-10-21T01:15:12.807Z,3.75
2018-10-21T01:16:12.647Z,3.72
2018-10-21T01:17:12.580Z,3.69
2018-10-21T01:18:12.484Z,3.75
2018-10-21T01:19:12.412Z,3.74
2018-10-21T01:20:12.324Z,3.74
2018-10-21T01:21:12.276Z,3.83
2018-10-21T01:22:12.158Z,3.86
2018-10-21T01:23:12.086Z,3.83
2018-10-21T01:24:11.993Z,3.86
2018-10-21T01:25:11.929Z,3.77
2018-10-21T01:26:11.827Z,3.77
2018-10-21T01:27:11.799Z,3.75
2018-10-21T01:28:11.667Z,3.86
2018-10-21T01:29:11.590Z,3.74
2018-10-21T01:30:11.508Z,3.71
2018-10-21T01:31:11.430Z,3.77
2018-10-21T01:32:11.341Z,3.66
2018-10-21T01:33:11.277Z,3.69
2018-10-21T01:34:11.176Z,3.65
2018-10-21T01:35:11.103Z,3.75
2018-10-21T01:36:11.112Z,3.84
2018-10-21T01:37:11.001Z,3.84
2018-10-21T01:38:10.878Z,3.94
2018-10-21T01:39:10.841Z,3.86
2018-10-21T01:40:10.688Z,4.08
2018-10-21T01:41:10.612Z,4.02
2018-10-21T01:42:10.523Z,4.00
2018-10-21T01:43:10.451Z,4.04
2018-10-21T01:44:10.359Z,4.02
2018-10-21T01:45:10.388Z,3.94
2018-10-21T01:46:10.195Z,4.01
2018-10-21T01:47:10.122Z,4.05
2018-10-21T01:48:10.034Z,4.01
2018-10-21T01:49:09.959Z,4.05
2018-10-21T01:50:09.868Z,4.08
2018-10-21T01:51:09.853Z,4.18
2018-10-21T01:52:09.704Z,4.12
2018-10-21T01:53:09.628Z,4.08
2018-10-21T01:54:09.543Z,4.15
2018-10-21T01:55:09.464Z,4.12
2018-10-21T01:56:09.381Z,4.23
2018-10-21T01:57:09.399Z,4.28
2018-10-21T01:58:09.218Z,4.19
2018-10-21T01:59:09.143Z,4.23
2018-10-21T02:00:09.052Z,4.22
2018-10-21T02:01:08.978Z,4.29
2018-10-21T02:02:08.889Z,4.29
2018-10-21T02:03:08.854Z,4.29
2018-10-21T02:04:08.723Z,4.25
2018-10-21T02:05:08.661Z,4.32
2018-10-21T02:06:08.566Z,4.36
2018-10-21T02:07:08.484Z,4.40
2018-10-21T02:08:08.398Z,4.37
2018-10-21T02:09:08.387Z,4.47
2018-10-21T02:10:08.234Z,4.50
2018-10-21T02:11:08.161Z,4.50
2018-10-21T02:12:08.068Z,4.46
2018-10-21T02:13:08.015Z,4.48
2018-10-21T02:14:07.932Z,4.47
2018-10-21T02:15:07.850Z,4.44
2018-10-21T02:16:07.744Z,4.52
2018-10-21T02:17:07.682Z,4.54
2018-10-21T02:18:07.592Z,4.55
2018-10-21T02:19:07.511Z,4.59
2018-10-21T02:20:07.421Z,4.64
2018-10-21T02:21:07.354Z,4.64
2018-10-21T02:22:07.254Z,4.59
2018-10-21T02:23:07.185Z,4.65
2018-10-21T02:24:07.096Z,4.72
2018-10-21T02:25:07.017Z,4.66
2018-10-21T02:26:06.961Z,4.69
2018-10-21T02:27:06.886Z,4.76
2018-10-21T02:28:06.802Z,4.76
2018-10-21T02:29:06.694Z,4.77
2018-10-21T02:30:06.608Z,4.84
2018-10-21T02:31:06.531Z,4.87
2018-10-21T02:32:06.443Z,4.85
2018-10-21T02:33:06.457Z,4.83
2018-10-21T02:34:06.274Z,4.95
2018-10-21T02:35:06.210Z,4.95
2018-10-21T02:36:06.115Z,5.00
2018-10-21T02:37:06.043Z,5.02
2018-10-21T02:38:05.950Z,4.95
2018-10-21T02:39:05.896Z,5.05
2018-10-21T02:40:05.791Z,5.11
2018-10-21T02:41:05.717Z,5.10
2018-10-21T02:42:05.627Z,5.08
2018-10-21T02:43:05.551Z,5.08
2018-10-21T02:44:05.461Z,5.16
2018-10-21T02:45:05.416Z,5.11
2018-10-21T02:46:05.300Z,5.08
2018-10-21T02:47:05.228Z,5.10
2018-10-21T02:48:05.133Z,5.10
2018-10-21T02:49:05.063Z,5.18
2018-10-21T02:50:04.977Z,5.16
2018-10-21T02:51:04.916Z,5.18
2018-10-21T02:52:04.806Z,5.17
2018-10-21T02:53:04.737Z,5.14
2018-10-21T02:54:04.646Z,5.20
2018-10-21T02:55:04.575Z,5.20
2018-10-21T02:56:04.482Z,5.24
2018-10-21T02:57:04.478Z,5.20
2018-10-21T02:58:04.323Z,5.17
2018-10-21T02:59:04.251Z,5.23
2018-10-21T03:00:04.159Z,5.24
2018-10-21T03:01:04.087Z,5.28
2018-10-21T03:02:03.993Z,5.35
2018-10-21T03:03:03.929Z,5.34
2018-10-21T03:04:03.833Z,5.29
2018-10-21T03:05:03.759Z,5.32
2018-10-21T03:06:03.672Z,5.32
2018-10-21T03:07:03.599Z,5.28
2018-10-21T03:08:03.508Z,5.47
2018-10-21T03:09:03.473Z,5.36
2018-10-21T03:10:03.348Z,5.42
2018-10-21T03:11:03.273Z,5.36
2018-10-21T03:12:03.185Z,5.42
2018-10-21T03:13:03.111Z,5.52
2018-10-21T03:14:03.022Z,5.35
2018-10-21T03:15:03.013Z,5.44
2018-10-21T03:16:02.861Z,5.41
2018-10-21T03:17:02.795Z,5.44
2018-10-21T03:18:02.697Z,5.42
2018-10-21T03:19:02.626Z,5.38
2018-10-21T03:20:02.534Z,5.45
2018-10-21T03:21:02.518Z,5.44
2018-10-21T03:22:02.373Z,5.45
2018-10-21T03:23:02.297Z,5.45
2018-10-21T03:24:02.230Z,5.44
2018-10-21T03:25:02.137Z,5.54
2018-10-21T03:26:02.049Z,5.59
2018-10-21T03:27:01.994Z,5.54
2018-10-21T03:28:01.886Z,5.52
2018-10-21T03:29:01.814Z,5.54
2018-10-21T03:30:01.726Z,5.53
2018-10-21T03:31:01.652Z,5.62
2018-10-21T03:32:01.556Z,5.60
2018-10-21T03:33:01.582Z,5.62
2018-10-21T03:34:01.509Z,5.60
2018-10-21T03:35:01.321Z,5.67
2018-10-21T03:36:01.243Z,5.71
2018-10-21T03:37:01.158Z,5.57
2018-10-21T03:38:01.077Z,5.57
2018-10-21T03:39:01.010Z,5.59
2018-10-21T03:40:00.928Z,5.59
2018-10-21T03:41:00.835Z,5.54
2018-10-21T03:42:00.747Z,5.65
2018-10-21T03:43:00.678Z,5.65
2018-10-21T03:44:00.588Z,5.68
2018-10-21T03:45:00.525Z,5.67
2018-10-21T03:46:00.524Z,5.68
2018-10-21T03:47:00.348Z,5.67
2018-10-21T03:48:00.261Z,5.70
2018-10-21T03:49:00.190Z,5.71
2018-10-21T03:50:00.098Z,5.68
2018-10-21T03:51:00.027Z,5.72
2018-10-21T03:51:59.946Z,5.70
2018-10-21T03:52:59.862Z,5.68
2018-10-21T03:53:59.774Z,5.65
2018-10-21T03:54:59.700Z,5.57
2018-10-21T03:55:59.614Z,5.60
2018-10-21T03:56:59.540Z,5.57
2018-10-21T03:57:59.455Z,5.54
2018-10-21T03:58:59.382Z,5.70
2018-10-21T03:59:59.285Z,5.49
2018-10-21T04:00:59.234Z,5.57
2018-10-21T04:01:59.127Z,5.57
2018-10-21T04:02:59.142Z,5.65
2018-10-21T04:03:59.048Z,5.67
2018-10-21T04:04:58.956Z,5.70
2018-10-21T04:05:58.799Z,5.67
2018-10-21T04:06:58.734Z,5.59
2018-10-21T04:07:58.639Z,5.60
2018-10-21T04:08:58.672Z,5.62
2018-10-21T04:09:58.500Z,5.63
2018-10-21T04:10:58.481Z,5.67
2018-10-21T04:11:58.313Z,5.60
2018-10-21T04:12:58.288Z,5.59
2018-10-21T04:13:58.158Z,5.65
2018-10-21T04:14:58.083Z,5.62
2018-10-21T04:15:58.001Z,5.63
2018-10-21T04:16:57.917Z,5.68
2018-10-21T04:17:57.825Z,5.74
2018-10-21T04:18:57.817Z,5.71
2018-10-21T04:19:57.666Z,5.75
2018-10-21T04:20:57.625Z,5.74
2018-10-21T04:21:57.531Z,5.72
2018-10-21T04:22:57.435Z,5.74
2018-10-21T04:23:57.342Z,5.80
2018-10-21T04:24:57.267Z,5.77
2018-10-21T04:25:57.181Z,5.80
2018-10-21T04:26:57.108Z,5.83
2018-10-21T04:27:57.051Z,5.77
2018-10-21T04:28:56.940Z,5.78
2018-10-21T04:29:56.857Z,5.83
2018-10-21T04:30:56.874Z,5.83
2018-10-21T04:31:56.693Z,5.85
2018-10-21T04:32:56.625Z,5.83
2018-10-21T04:33:56.629Z,5.83
2018-10-21T04:34:56.490Z,5.83
2018-10-21T04:35:56.416Z,5.83
2018-10-21T04:36:56.402Z,5.83
2018-10-21T04:37:56.208Z,5.83
2018-10-21T04:38:56.143Z,5.77
2018-10-21T04:39:56.083Z,5.74
2018-10-21T04:40:56.019Z,5.72
2018-10-21T04:41:55.885Z,5.71
2018-10-21T04:42:55.827Z,5.75
2018-10-21T04:43:55.724Z,5.71
2018-10-21T04:44:55.740Z,5.65
2018-10-21T04:45:55.607Z,5.52
2018-10-21T04:46:56.601Z,5.57
2018-10-21T04:47:55.399Z,5.53
2018-10-21T04:48:55.324Z,5.52
2018-10-21T04:49:55.235Z,5.54
2018-10-21T04:50:55.164Z,5.49
2018-10-21T04:51:55.121Z,5.42
2018-10-21T04:52:55.005Z,5.44
2018-10-21T04:53:54.930Z,5.44
2018-10-21T04:54:54.845Z,5.32
2018-10-21T04:55:54.749Z,5.32
2018-10-21T04:56:54.677Z,5.35
2018-10-21T04:57:54.592Z,5.36
2018-10-21T04:58:54.516Z,5.32
2018-10-21T04:59:54.428Z,5.32
2018-10-21T05:00:54.412Z,5.28
2018-10-21T05:01:54.266Z,5.23
2018-10-21T05:02:54.192Z,5.16
2018-10-21T05:03:54.126Z,5.08
2018-10-21T05:04:54.131Z,5.05
2018-10-21T05:05:53.938Z,4.87
2018-10-21T05:06:53.938Z,4.93
2018-10-21T05:07:53.775Z,4.83
2018-10-21T05:08:53.702Z,4.84
2018-10-21T05:09:53.619Z,4.83
2018-10-21T05:10:53.553Z,4.73
2018-10-21T05:11:53.455Z,4.76
2018-10-21T05:12:53.379Z,4.72
2018-10-21T05:13:53.291Z,4.73
2018-10-21T05:14:53.277Z,4.72
2018-10-21T05:15:53.126Z,4.68
2018-10-21T05:16:53.085Z,4.72
2018-10-21T05:17:52.965Z,4.65
2018-10-21T05:18:52.894Z,4.64
2018-10-21T05:19:52.802Z,4.58
2018-10-21T05:20:52.803Z,4.56
2018-10-21T05:21:52.638Z,4.61
2018-10-21T05:22:52.614Z,4.59
2018-10-21T05:23:52.481Z,4.54
2018-10-21T05:24:52.420Z,4.62
2018-10-21T05:25:52.312Z,4.56
2018-10-21T05:26:52.333Z,4.56
2018-10-21T05:27:52.160Z,4.61
2018-10-21T05:28:52.140Z,4.56
2018-10-21T05:29:51.990Z,4.58
2018-10-21T05:30:51.946Z,4.62
2018-10-21T05:31:51.827Z,4.58
2018-10-21T05:32:51.855Z,4.50
2018-10-21T05:33:51.663Z,4.58
2018-10-21T05:34:51.666Z,4.46
2018-10-21T05:35:51.501Z,4.47
2018-10-21T05:36:51.479Z,4.32
2018-10-21T05:37:51.387Z,4.32
2018-10-21T05:38:51.268Z,4.32
2018-10-21T05:39:51.184Z,4.22
2018-10-21T05:40:51.102Z,4.20
2018-10-21T05:41:51.013Z,4.23
2018-10-21T05:42:50.940Z,4.16
2018-10-21T05:43:50.852Z,4.11
2018-10-21T05:44:50.777Z,4.05
2018-10-21T05:45:50.687Z,4.02
2018-10-21T05:46:50.707Z,4.02
2018-10-21T05:47:50.524Z,3.97
2018-10-21T05:48:50.451Z,3.94
2018-10-21T05:49:50.361Z,3.87
2018-10-21T05:50:50.340Z,3.90
2018-10-21T05:51:50.201Z,3.93
2018-10-21T05:52:50.128Z,3.87
2018-10-21T05:53:50.031Z,3.83
2018-10-21T05:54:50.061Z,3.83
2018-10-21T05:55:49.873Z,3.84
2018-10-21T05:56:49.798Z,3.87
2018-10-21T05:57:49.713Z,3.83
2018-10-21T05:58:49.633Z,3.82
2018-10-21T05:59:49.543Z,3.80
2018-10-21T06:00:49.470Z,3.75
2018-10-21T06:01:49.383Z,3.80
2018-10-21T06:02:49.364Z,3.83
2018-10-21T06:03:49.220Z,3.82
2018-10-21T06:04:49.143Z,3.83
2018-10-21T06:05:49.049Z,3.89
2018-10-21T06:06:48.983Z,3.92
2018-10-21T06:07:48.893Z,3.87
2018-10-21T06:08:48.815Z,3.93
2018-10-21T06:09:48.727Z,4.01
2018-10-21T06:10:48.654Z,4.11
2018-10-21T06:11:48.566Z,4.15
2018-10-21T06:12:48.491Z,4.10
2018-10-21T06:13:48.402Z,4.11
2018-10-21T06:14:48.326Z,4.18
2018-10-21T06:15:48.297Z,4.18
2018-10-21T06:16:48.162Z,4.15
2018-10-21T06:17:48.078Z,4.11
2018-10-21T06:18:48.025Z,4.01
2018-10-21T06:19:47.970Z,3.87
2018-10-21T06:20:47.827Z,3.87
2018-10-21T06:21:47.783Z,3.86
2018-10-21T06:22:47.662Z,3.84
2018-10-21T06:23:47.759Z,3.89
2018-10-21T06:24:47.502Z,3.94
2018-10-21T06:25:47.425Z,3.87
2018-10-21T06:26:47.339Z,3.87
2018-10-21T06:27:47.373Z,3.83
2018-10-21T06:28:47.175Z,3.79
2018-10-21T06:29:47.121Z,3.77
2018-10-21T06:30:47.016Z,3.83
2018-10-21T06:31:47.033Z,3.80
2018-10-21T06:32:46.849Z,3.84
2018-10-21T06:33:46.878Z,3.98
2018-10-21T06:34:46.683Z,3.83
2018-10-21T06:35:46.657Z,4.00
2018-10-21T06:36:46.580Z,4.00
2018-10-21T06:37:46.457Z,4.01
2018-10-21T06:38:46.358Z,4.02
2018-10-21T06:39:46.369Z,4.08
2018-10-21T06:40:46.194Z,4.05
2018-10-21T06:41:46.177Z,4.23
2018-10-21T06:42:46.029Z,4.07
2018-10-21T06:43:45.982Z,4.05
2018-10-21T06:44:45.863Z,4.08
2018-10-21T06:45:45.955Z,4.18
2018-10-21T06:46:45.707Z,4.20
2018-10-21T06:47:45.706Z,4.12
2018-10-21T06:48:45.545Z,4.19
2018-10-21T06:49:45.514Z,4.29
2018-10-21T06:50:45.375Z,4.30
2018-10-21T06:51:45.323Z,4.34
2018-10-21T06:52:45.211Z,4.38
2018-10-21T06:53:45.238Z,4.36
2018-10-21T06:54:45.049Z,4.46
2018-10-21T06:55:45.041Z,4.47
2018-10-21T06:56:45.044Z,4.55
2018-10-21T06:57:44.922Z,4.62
2018-10-21T06:58:44.721Z,4.66
2018-10-21T06:59:44.656Z,4.68
2018-10-21T07:00:44.557Z,4.65
2018-10-21T07:01:44.570Z,4.68
2018-10-21T07:02:44.401Z,4.74
2018-10-21T07:03:44.379Z,4.74
2018-10-21T07:04:44.292Z,4.74
2018-10-21T07:05:44.186Z,4.83
2018-10-21T07:06:44.068Z,4.77
2018-10-21T07:07:44.100Z,4.92
2018-10-21T07:08:43.901Z,5.05
2018-10-21T07:09:43.907Z,5.11
2018-10-21T07:10:43.741Z,5.32
2018-10-21T07:11:43.715Z,5.41
2018-10-21T07:12:43.574Z,5.60
2018-10-21T07:13:43.521Z,5.65
2018-10-21T07:14:43.418Z,5.83
2018-10-21T07:15:43.538Z,6.07
2018-10-21T07:16:43.337Z,6.27
2018-10-21T07:17:43.242Z,6.39
2018-10-21T07:18:43.088Z,6.55
2018-10-21T07:19:43.053Z,6.63
2018-10-21T07:20:42.925Z,6.83
2018-10-21T07:21:42.964Z,6.96
2018-10-21T07:22:42.763Z,7.12
2018-10-21T07:23:42.769Z,7.19
2018-10-21T07:24:42.598Z,7.35
2018-10-21T07:25:42.580Z,7.41
2018-10-21T07:26:42.441Z,7.47
2018-10-21T07:27:42.387Z,7.67
2018-10-21T07:28:42.271Z,7.82
2018-10-21T07:29:42.298Z,8.00
2018-10-21T07:30:42.118Z,8.18
2018-10-21T07:31:42.116Z,8.29
2018-10-21T07:32:41.951Z,8.34
2018-10-21T07:33:41.924Z,8.51
2018-10-21T07:34:41.791Z,8.51
2018-10-21T07:35:41.826Z,8.61
2018-10-21T07:36:42.597Z,8.68
2018-10-21T07:37:41.632Z,8.80
2018-10-21T07:38:41.465Z,8.95
2018-10-21T07:39:41.448Z,9.14
2018-10-21T07:40:41.311Z,9.28
2018-10-21T07:41:41.252Z,9.34
2018-10-21T07:42:41.143Z,9.43
2018-10-21T07:43:41.160Z,9.55
2018-10-21T07:44:40.990Z,9.53
2018-10-21T07:45:40.972Z,9.58
2018-10-21T07:46:40.824Z,9.60
2018-10-21T07:47:40.899Z,9.65
2018-10-21T07:48:40.662Z,9.70
2018-10-21T07:49:40.696Z,9.80
2018-10-21T07:50:40.508Z,9.82
2018-10-21T07:51:40.501Z,9.93
2018-10-21T07:52:40.344Z,9.89
2018-10-21T07:53:40.307Z,10.08
2018-10-21T07:54:40.182Z,10.11
2018-10-21T07:55:40.145Z,10.19
2018-10-21T07:56:40.021Z,10.25
2018-10-21T07:57:40.028Z,10.31
2018-10-21T07:58:39.862Z,10.34
2018-10-21T07:59:39.836Z,10.44
2018-10-21T08:00:39.703Z,10.59
2018-10-21T08:01:39.644Z,10.66
2018-10-21T08:02:39.544Z,10.67
2018-10-21T08:03:39.557Z,10.85
2018-10-21T08:04:39.429Z,10.92
2018-10-21T08:05:39.366Z,10.93
2018-10-21T08:06:39.228Z,11.17
2018-10-21T08:07:39.178Z,11.14
2018-10-21T08:08:39.120Z,11.29
2018-10-21T08:09:39.087Z,11.39
2018-10-21T08:10:38.905Z,11.49
2018-10-21T08:11:43.704Z,11.67
2018-10-21T08:12:38.748Z,11.74
2018-10-21T08:13:43.719Z,11.65
2018-10-21T08:14:38.600Z,11.79
2018-10-21T08:15:39.535Z,11.84
2018-10-21T08:16:38.432Z,11.81
2018-10-21T08:17:38.419Z,11.97
2018-10-21T08:18:38.277Z,12.06
2018-10-21T08:19:38.230Z,12.09
2018-10-21T08:20:38.113Z,12.23
2018-10-21T08:21:38.149Z,12.23
2018-10-21T08:22:37.960Z,12.27
2018-10-21T08:23:37.950Z,12.44
2018-10-21T08:24:37.800Z,12.55
2018-10-21T08:25:37.758Z,12.60
2018-10-21T08:26:37.641Z,12.56
2018-10-21T08:27:37.670Z,12.70
2018-10-21T08:28:37.486Z,12.78
2018-10-21T08:29:37.481Z,12.85
2018-10-21T08:30:38.162Z,12.86
2018-10-21T08:31:37.287Z,12.96
2018-10-21T08:32:37.172Z,13.00
2018-10-21T08:33:37.199Z,13.21
2018-10-21T08:34:37.015Z,13.14
2018-10-21T08:35:37.005Z,13.21
2018-10-21T08:36:36.859Z,13.32
2018-10-21T08:37:36.815Z,13.38
2018-10-21T08:38:36.703Z,13.50
2018-10-21T08:39:36.724Z,13.50
2018-10-21T08:40:36.545Z,13.61
2018-10-21T08:41:36.539Z,13.61
2018-10-21T08:42:36.392Z,13.70
2018-10-21T08:43:36.340Z,13.76
2018-10-21T08:44:36.233Z,13.68
2018-10-21T08:45:36.254Z,13.68
2018-10-21T08:46:36.137Z,13.71
2018-10-21T08:47:36.068Z,13.83
2018-10-21T08:48:35.922Z,13.99
2018-10-21T08:49:35.868Z,14.10
2018-10-21T08:50:35.771Z,14.11
2018-10-21T08:51:35.781Z,14.02
2018-10-21T08:52:35.610Z,14.09
2018-10-21T08:53:35.591Z,14.23
2018-10-21T08:54:35.456Z,14.27
2018-10-21T08:55:35.398Z,14.17
2018-10-21T08:56:35.302Z,14.27
2018-10-21T08:57:35.303Z,14.36
2018-10-21T08:58:35.148Z,14.36
2018-10-21T08:59:35.123Z,14.38
2018-10-21T09:00:34.996Z,14.36
2018-10-21T09:01:35.033Z,14.31
2018-10-21T09:02:34.836Z,14.44
2018-10-21T09:03:34.836Z,14.46
2018-10-21T09:04:34.681Z,14.57
2018-10-21T09:05:34.644Z,14.39
2018-10-21T09:06:34.528Z,14.42
2018-10-21T09:07:34.556Z,14.47
2018-10-21T09:08:34.369Z,14.57
2018-10-21T09:09:34.364Z,14.67
2018-10-21T09:10:34.279Z,14.78
2018-10-21T09:11:34.172Z,14.90
2018-10-21T09:12:34.064Z,14.95
2018-10-21T09:13:34.082Z,15.06
2018-10-21T09:14:33.908Z,15.16
2018-10-21T09:15:33.966Z,15.03
2018-10-21T09:16:33.774Z,15.15
2018-10-21T09:17:33.701Z,15.16
2018-10-21T09:18:33.604Z,15.31
2018-10-21T09:19:33.611Z,15.33
2018-10-21T09:20:33.451Z,15.38
2018-10-21T09:21:33.418Z,15.51
2018-10-21T09:22:33.300Z,15.41
2018-10-21T09:23:33.342Z,15.59
2018-10-21T09:24:33.143Z,15.49
2018-10-21T09:25:33.138Z,15.51
2018-10-21T09:26:32.991Z,15.49
2018-10-21T09:27:32.946Z,15.35
2018-10-21T09:28:32.836Z,15.45
2018-10-21T09:29:32.855Z,15.46
2018-10-21T09:30:32.685Z,15.43
2018-10-21T09:31:32.668Z,15.53
2018-10-21T09:32:32.530Z,15.39
2018-10-21T09:33:32.481Z,15.51
2018-10-21T09:34:32.381Z,15.59
2018-10-21T09:35:32.405Z,15.75
2018-10-21T09:36:32.228Z,15.75
2018-10-21T09:37:32.196Z,15.86
2018-10-21T09:38:32.076Z,15.88
2018-10-21T09:39:32.104Z,15.97
2018-10-21T09:40:31.926Z,15.92
2018-10-21T09:41:31.919Z,15.89
2018-10-21T09:42:31.774Z,15.89
2018-10-21T09:43:31.725Z,15.96
2018-10-21T09:44:31.623Z,15.96
2018-10-21T09:45:31.638Z,15.89
2018-10-21T09:46:31.541Z,16.00
2018-10-21T09:47:31.441Z,15.97
2018-10-21T09:48:31.312Z,15.92
2018-10-21T09:49:31.358Z,15.88
2018-10-21T09:50:31.163Z,15.96
2018-10-21T09:51:31.163Z,16.07
2018-10-21T09:52:31.013Z,16.14
2018-10-21T09:53:30.974Z,16.18
2018-10-21T09:54:30.862Z,16.18
2018-10-21T09:55:30.884Z,16.29
2018-10-21T09:56:30.706Z,16.33
2018-10-21T09:57:30.697Z,16.44
2018-10-21T09:58:30.587Z,16.52
2018-10-21T09:59:30.501Z,16.65
2018-10-21T10:00:30.406Z,16.73
2018-10-21T10:01:30.410Z,16.56
2018-10-21T10:02:30.301Z,16.50
2018-10-21T10:03:30.215Z,16.56
2018-10-21T10:04:30.107Z,16.35
2018-10-21T10:05:30.130Z,16.07
2018-10-21T10:06:29.957Z,15.83
2018-10-21T10:07:29.938Z,15.68
2018-10-21T10:08:29.808Z,15.64
2018-10-21T10:09:29.748Z,15.52
2018-10-21T10:10:29.653Z,15.52
2018-10-21T10:11:29.660Z,15.49
2018-10-21T10:12:29.506Z,15.45
2018-10-21T10:13:29.472Z,15.61
2018-10-21T10:14:29.351Z,15.61
2018-10-21T10:15:29.377Z,15.85
2018-10-21T10:16:29.199Z,16.06
2018-10-21T10:17:29.210Z,16.16
2018-10-21T10:18:29.046Z,16.23
2018-10-21T10:19:28.996Z,16.16
2018-10-21T10:20:28.898Z,16.16
2018-10-21T10:21:28.906Z,16.12
2018-10-21T10:22:28.752Z,16.18
2018-10-21T10:23:28.775Z,16.38
2018-10-21T10:24:28.602Z,16.45
2018-10-21T10:25:28.626Z,16.53
2018-10-21T10:26:28.450Z,16.50
2018-10-21T10:27:28.435Z,16.55
2018-10-21T10:28:28.296Z,16.59
2018-10-21T10:29:28.358Z,16.62
2018-10-21T10:30:28.190Z,16.74
2018-10-21T10:31:28.154Z,16.57
2018-10-21T10:32:28.000Z,16.59
2018-10-21T10:33:27.962Z,16.37
2018-10-21T10:34:27.848Z,16.33
2018-10-21T10:35:27.874Z,16.37
2018-10-21T10:36:27.703Z,16.22
2018-10-21T10:37:27.682Z,16.14
2018-10-21T10:38:27.546Z,16.15
2018-10-21T10:39:27.491Z,16.23
2018-10-21T10:40:27.398Z,16.34
2018-10-21T10:41:27.395Z,16.44
2018-10-21T10:42:27.248Z,16.52
2018-10-21T10:43:27.238Z,16.62
2018-10-21T10:44:27.096Z,16.84
2018-10-21T10:45:27.120Z,16.90
2018-10-21T10:46:26.949Z,16.90
2018-10-21T10:47:26.932Z,17.14
2018-10-21T10:48:26.805Z,17.26
2018-10-21T10:49:26.842Z,17.38
2018-10-21T10:50:26.649Z,17.58
2018-10-21T10:51:26.648Z,17.63
2018-10-21T10:52:26.499Z,17.66
2018-10-21T10:53:26.459Z,17.71
2018-10-21T10:54:26.357Z,17.69
2018-10-21T10:55:26.367Z,17.57
2018-10-21T10:56:26.203Z,17.46
2018-10-21T10:57:26.177Z,17.08
2018-10-21T10:58:26.052Z,17.11
2018-10-21T10:59:26.105Z,17.05
2018-10-21T11:00:25.903Z,17.07
2018-10-21T11:01:25.896Z,16.90
2018-10-21T11:02:25.756Z,16.95
2018-10-21T11:03:25.706Z,16.95
2018-10-21T11:04:25.611Z,17.03
2018-10-21T11:05:25.615Z,17.21
2018-10-21T11:06:25.542Z,17.20
2018-10-21T11:07:25.424Z,17.21
2018-10-21T11:08:25.305Z,17.25
2018-10-21T11:09:25.334Z,17.05
2018-10-21T11:10:25.158Z,16.62
2018-10-21T11:11:25.147Z,16.65
2018-10-21T11:12:25.012Z,16.66
2018-10-21T11:13:24.933Z,16.66
2018-10-21T11:14:24.860Z,16.35
2018-10-21T11:15:24.864Z,16.23
2018-10-21T11:16:24.712Z,16.40
2018-10-21T11:17:24.676Z,16.35
2018-10-21T11:18:24.563Z,16.63
2018-10-21T11:19:24.587Z,16.50
2018-10-21T11:20:24.410Z,16.67
2018-10-21T11:21:24.393Z,16.77
2018-10-21T11:22:24.379Z,16.82
2018-10-21T11:23:24.301Z,16.80
2018-10-21T11:24:24.119Z,16.74
2018-10-21T11:25:24.115Z,16.67
2018-10-21T11:26:23.969Z,16.55
2018-10-21T11:27:23.921Z,16.62
2018-10-21T11:28:23.819Z,16.65
2018-10-21T11:29:23.837Z,16.66
2018-10-21T11:30:23.672Z,16.67
2018-10-21T11:31:23.644Z,16.75
2018-10-21T11:32:23.519Z,16.82
2018-10-21T11:33:23.553Z,17.11
2018-10-21T11:34:23.374Z,17.25
2018-10-21T11:35:23.361Z,17.57
2018-10-21T11:36:23.225Z,17.70
2018-10-21T11:37:23.215Z,17.92
2018-10-21T11:38:23.076Z,18.07
2018-10-21T11:39:23.077Z,18.18
2018-10-21T11:40:22.924Z,18.37
2018-10-21T11:41:22.891Z,18.40
2018-10-21T11:42:22.777Z,18.61
2018-10-21T11:43:22.803Z,18.57
2018-10-21T11:44:22.630Z,18.65
2018-10-21T11:45:22.610Z,18.62
2018-10-21T11:46:22.503Z,18.55
2018-10-21T11:47:22.518Z,18.62
2018-10-21T11:48:22.335Z,18.61
2018-10-21T11:49:22.330Z,18.50
2018-10-21T11:50:22.189Z,18.42
2018-10-21T11:51:22.144Z,18.25
2018-10-21T11:52:22.047Z,18.11
2018-10-21T11:53:22.047Z,18.09
2018-10-21T11:54:21.889Z,17.89
2018-10-21T11:55:21.854Z,17.71
2018-10-21T11:56:21.742Z,17.67
2018-10-21T11:57:21.765Z,17.58
2018-10-21T11:58:21.592Z,17.55
2018-10-21T11:59:21.582Z,17.32
2018-10-21T12:00:21.441Z,17.15
2018-10-21T12:01:21.481Z,17.17
2018-10-21T12:02:21.310Z,17.14
2018-10-21T12:03:21.299Z,17.08
2018-10-21T12:04:21.147Z,17.03
2018-10-21T12:05:21.103Z,17.03
2018-10-21T12:06:21.002Z,16.99
2018-10-21T12:07:21.016Z,17.17
2018-10-21T12:08:20.849Z,17.23
2018-10-21T12:09:20.824Z,17.21
2018-10-21T12:10:20.703Z,17.25
2018-10-21T12:11:20.732Z,17.28
2018-10-21T12:12:20.554Z,17.26
2018-10-21T12:13:20.542Z,17.33
2018-10-21T12:14:20.405Z,17.30
2018-10-21T12:15:20.329Z,17.30
2018-10-21T12:16:20.280Z,17.21
2018-10-21T12:17:20.179Z,17.11
2018-10-21T12:18:20.110Z,17.15
2018-10-21T12:19:20.031Z,17.08
2018-10-21T12:20:19.974Z,17.11
2018-10-21T12:21:19.881Z,17.18
2018-10-21T12:22:19.993Z,17.23
2018-10-21T12:23:19.770Z,17.32
2018-10-21T12:24:19.695Z,17.15
2018-10-21T12:25:19.714Z,17.21
2018-10-21T12:26:19.523Z,17.08
2018-10-21T12:27:19.436Z,17.13
2018-10-21T12:28:19.472Z,17.23
2018-10-21T12:29:19.382Z,17.20
2018-10-21T12:30:19.223Z,17.14
2018-10-21T12:31:19.241Z,17.20
2018-10-21T12:32:19.069Z,17.03
2018-10-21T12:33:18.985Z,17.03
2018-10-21T12:34:19.009Z,17.05
2018-10-21T12:35:18.902Z,17.18
2018-10-21T12:36:18.776Z,17.18
2018-10-21T12:37:18.690Z,17.13
2018-10-21T12:38:18.623Z,17.11
2018-10-21T12:39:18.538Z,16.92
2018-10-21T12:40:18.534Z,16.88
2018-10-21T12:41:18.442Z,16.89
2018-10-21T12:42:18.327Z,16.85
2018-10-21T12:43:18.282Z,16.81
2018-10-21T12:44:18.176Z,16.82
2018-10-21T12:45:18.110Z,16.84
2018-10-21T12:46:18.029Z,16.96
2018-10-21T12:47:18.010Z,17.03
2018-10-21T12:48:17.879Z,16.90
2018-10-21T12:49:17.865Z,17.11
2018-10-21T12:50:17.730Z,17.13
2018-10-21T12:51:17.649Z,17.18
2018-10-21T12:52:17.638Z,17.17
2018-10-21T12:53:17.547Z,17.33
2018-10-21T12:54:17.476Z,17.50
2018-10-21T12:55:17.420Z,17.35
2018-10-21T12:56:17.280Z,17.33
2018-10-21T12:57:17.205Z,17.18
2018-10-21T12:58:17.183Z,17.18
2018-10-21T12:59:17.055Z,17.23
2018-10-21T13:00:16.990Z,17.23
2018-10-21T13:01:17.052Z,17.05
2018-10-21T13:02:16.883Z,17.00
2018-10-21T13:03:16.756Z,17.00
2018-10-21T13:04:16.775Z,16.88
2018-10-21T13:05:16.610Z,17.11
2018-10-21T13:06:16.540Z,17.07